Αρχική σελίδα
METAR-TAF:

METAR-TAF

Αεροδρόμια :

Φρέσνο, Καλιφόρνια, Ηνωμένες Πολιτείες Αμερικής

γεωγραφικό πλάτος: 36-46-48N, γεωγραφικό μήκος: 119-43-10W, υψόμετρο: 101 μ

Παρών καιρός

Η αναφορά έγινε 12 λεπτά πριν, στις 18:53 UTC
Ήπιος άνεμος
Θερμοκρασία 16°C
Υγρασία 39%
Πίεση 1019 hPa
Ορατότητα: 6.4 χλμ
Καθαρός ουρανός
καταχνιά, καπνός

METAR: KFAT 181853Z 00000KT 4SM HZ FU CLR 16/02 A3009

Χρόνος: 11:05 (19:05 UTC)

Πρόγνωση Καιρού

Η αναφορά έγινε 1 ώρα και 45 λεπτά πριν, στις 17:20 UTC
Η πρόγνωση ισχύει από τις 18 στις 18 UTC έως τις 19 στις 18 UTC
Άνεμος 3 kt από μεταβλητές κατευθύνσεις
Ορατότητα: 4.8 χλμ
Διάσπαρτα νέφη σε ύψος 20000 πόδια
καταχνιά, καπνός

TAF: KFAT 181720Z 1818/1918 VRB03KT 3SM HZ FU SCT200

Μετεωρολογικές αναφορές και προγνώσεις για περισσότερα από 4000 αεροδρόμια (δελτία METAR και TAF).

Οι διαθέσιμοι σταθμοί απεικονίζονται στο χάρτη με κίτρινες και κόκκινες κουκκίδες.

Μετακινήστε το ποντίκι πάνω από τις κουκκίδες για να δείτε το όνομα του σταθμού.

Στη συνέχεια, κάντε κλικ για να δείτε τις μετεωρολογικές αναφορές και τις προγνώσεις καιρού.

Για να αλλάξετε το χάρτη: κάντε κλικ στα πράσινα κουμπιά με τον μαύρο σταυρό για να ζουμάρετε, στο πράσινο κουμπί με την παύλα για να αφαιρέσετε το ζουμ ή στα πράσινα βέλη για να αντιπαραβάλλετε χάρτες.


METAR-TAF: